createdAt,value
2023-04-30T00:01:18.061Z,27.00
2023-04-30T00:02:38.762Z,26.63
2023-04-30T00:03:59.397Z,26.35
2023-04-30T00:05:19.904Z,24.45
2023-04-30T00:06:40.299Z,25.98
2023-04-30T00:08:01.257Z,26.95
2023-04-30T00:09:21.969Z,31.57
2023-04-30T00:10:42.725Z,29.77
2023-04-30T00:12:05.040Z,26.65
2023-04-30T00:13:25.803Z,24.45
2023-04-30T00:14:46.399Z,27.40
2023-04-30T00:16:07.474Z,27.40
2023-04-30T00:17:28.282Z,25.45
2023-04-30T00:18:48.766Z,29.67
2023-04-30T00:20:10.122Z,30.40
2023-04-30T00:21:38.872Z,29.10
2023-04-30T00:22:59.421Z,30.02
2023-04-30T00:24:22.668Z,33.25
2023-04-30T00:25:43.074Z,27.90
2023-04-30T00:27:05.108Z,32.00
2023-04-30T00:28:26.005Z,31.38
2023-04-30T00:29:46.580Z,28.87
2023-04-30T00:31:07.317Z,26.10
2023-04-30T00:32:28.151Z,27.75
2023-04-30T00:33:48.767Z,27.13
2023-04-30T00:35:09.766Z,31.48
2023-04-30T00:36:30.589Z,29.10
2023-04-30T00:37:51.068Z,25.73
2023-04-30T00:39:11.845Z,29.02
2023-04-30T00:40:34.407Z,25.07
2023-04-30T00:41:55.840Z,25.58
2023-04-30T00:43:17.723Z,27.08
2023-04-30T00:44:38.254Z,31.33
2023-04-30T00:45:58.889Z,30.70
2023-04-30T00:47:19.666Z,32.72
2023-04-30T00:48:40.202Z,32.83
2023-04-30T00:50:01.052Z,28.75
2023-04-30T00:51:24.851Z,26.75
2023-04-30T00:52:45.720Z,30.42
2023-04-30T00:54:07.390Z,27.50
2023-04-30T00:56:48.618Z,29.00
2023-04-30T00:58:09.410Z,28.02
2023-04-30T00:59:37.144Z,33.35
2023-04-30T01:00:58.241Z,39.58
2023-04-30T01:02:18.887Z,29.15
2023-04-30T01:03:39.728Z,29.98
2023-04-30T01:05:00.372Z,25.43
2023-04-30T01:06:21.254Z,31.97
2023-04-30T01:07:42.633Z,34.47
2023-04-30T01:09:03.342Z,31.73
2023-04-30T01:10:26.854Z,35.58
2023-04-30T01:11:52.767Z,28.73
2023-04-30T01:13:17.973Z,32.08
2023-04-30T01:14:54.507Z,31.48
2023-04-30T01:16:19.630Z,29.80
2023-04-30T01:17:47.717Z,27.90
2023-04-30T01:19:15.319Z,34.00
2023-04-30T01:20:40.753Z,34.38
2023-04-30T01:22:04.551Z,31.98
2023-04-30T01:23:34.266Z,30.23
2023-04-30T01:25:30.582Z,32.13
2023-04-30T01:27:11.683Z,33.38
2023-04-30T01:28:36.192Z,27.73
2023-04-30T01:29:57.092Z,34.22
2023-04-30T01:31:19.170Z,34.33
2023-04-30T01:32:39.720Z,32.70
2023-04-30T01:34:00.245Z,34.28
2023-04-30T01:35:20.835Z,29.67
2023-04-30T01:36:53.070Z,32.50
2023-04-30T01:38:20.905Z,30.83
2023-04-30T01:39:56.740Z,36.40
2023-04-30T01:41:24.394Z,32.95
2023-04-30T01:42:51.374Z,31.05
2023-04-30T01:44:23.687Z,32.70
2023-04-30T01:45:58.854Z,32.15
2023-04-30T01:47:24.776Z,34.47
2023-04-30T01:48:54.271Z,29.92
2023-04-30T01:50:22.529Z,28.75
2023-04-30T01:51:44.305Z,31.25
2023-04-30T01:53:07.388Z,35.58
2023-04-30T01:54:31.752Z,32.15
2023-04-30T01:55:57.821Z,30.67
2023-04-30T01:57:21.609Z,31.13
2023-04-30T01:58:42.370Z,30.13
2023-04-30T02:00:09.076Z,27.48
2023-04-30T02:01:30.860Z,29.92
2023-04-30T02:02:51.753Z,28.90
2023-04-30T02:04:12.251Z,29.25
2023-04-30T02:05:32.766Z,29.80
2023-04-30T02:06:53.550Z,30.02
2023-04-30T02:08:14.654Z,31.23
2023-04-30T02:09:50.096Z,31.05
2023-04-30T02:11:10.414Z,32.42
2023-04-30T02:12:33.599Z,30.98
2023-04-30T02:13:54.518Z,29.60
2023-04-30T02:15:16.237Z,32.38
2023-04-30T02:16:36.691Z,31.15
2023-04-30T02:17:57.476Z,32.53
2023-04-30T02:19:18.176Z,32.25
2023-04-30T02:20:38.596Z,32.10
2023-04-30T02:21:58.874Z,31.92
2023-04-30T02:23:19.105Z,35.80
2023-04-30T02:24:39.707Z,31.70
2023-04-30T02:26:00.356Z,32.75
2023-04-30T02:27:20.760Z,33.63
2023-04-30T02:28:41.445Z,30.55
2023-04-30T02:30:02.144Z,33.22
2023-04-30T02:31:24.487Z,40.90
2023-04-30T02:32:44.831Z,33.70
2023-04-30T02:34:05.569Z,33.72
2023-04-30T02:35:26.239Z,39.38
2023-04-30T02:36:47.114Z,29.90
2023-04-30T02:38:07.615Z,36.90
2023-04-30T02:39:28.409Z,39.03
2023-04-30T02:40:49.030Z,39.10
2023-04-30T02:42:09.806Z,35.70
2023-04-30T02:43:30.235Z,38.60
2023-04-30T02:44:50.861Z,40.05
2023-04-30T02:46:11.489Z,39.13
2023-04-30T02:47:33.208Z,36.13
2023-04-30T02:48:53.692Z,34.65
2023-04-30T02:50:14.318Z,35.15
2023-04-30T02:51:35.135Z,34.15
2023-04-30T02:52:55.619Z,35.92
2023-04-30T02:54:16.247Z,31.60
2023-04-30T02:55:36.468Z,31.42
2023-04-30T02:56:57.075Z,41.53
2023-04-30T02:58:17.790Z,35.35
2023-04-30T02:59:38.405Z,40.33
2023-04-30T03:00:58.966Z,35.00
2023-04-30T03:02:19.721Z,39.13
2023-04-30T03:03:41.448Z,40.78
2023-04-30T03:05:02.770Z,37.88
2023-04-30T03:06:23.133Z,34.25
2023-04-30T03:07:44.089Z,32.40
2023-04-30T03:09:04.694Z,37.20
2023-04-30T03:10:25.348Z,42.75
2023-04-30T03:11:46.155Z,39.22
2023-04-30T03:13:06.636Z,38.78
2023-04-30T03:14:26.987Z,35.35
2023-04-30T03:15:47.629Z,36.30
2023-04-30T03:17:08.690Z,35.33
2023-04-30T03:18:29.571Z,34.83
2023-04-30T03:19:51.226Z,39.10
2023-04-30T03:21:11.739Z,37.60
2023-04-30T03:22:32.464Z,36.22
2023-04-30T03:23:53.017Z,39.17
2023-04-30T03:25:13.457Z,40.05
2023-04-30T03:26:34.246Z,42.30
2023-04-30T03:27:54.913Z,36.07
2023-04-30T03:29:15.284Z,42.42
2023-04-30T03:30:35.948Z,39.60
2023-04-30T03:31:56.694Z,35.65
2023-04-30T03:33:17.340Z,32.95
2023-04-30T03:34:38.522Z,36.88
2023-04-30T03:36:00.531Z,38.90
2023-04-30T03:37:20.908Z,36.92
2023-04-30T03:38:41.565Z,40.70
2023-04-30T03:40:02.141Z,30.58
2023-04-30T03:41:22.754Z,42.25
2023-04-30T03:42:43.368Z,31.63
2023-04-30T03:44:04.031Z,34.05
2023-04-30T03:45:24.521Z,32.43
2023-04-30T03:46:45.502Z,33.90
2023-04-30T03:48:06.367Z,36.58
2023-04-30T03:49:27.005Z,39.35
2023-04-30T03:50:47.524Z,37.05
2023-04-30T03:52:09.426Z,30.93
2023-04-30T03:53:29.852Z,30.67
2023-04-30T03:54:50.610Z,35.60
2023-04-30T03:56:11.288Z,33.97
2023-04-30T03:57:32.049Z,33.28
2023-04-30T03:58:52.667Z,32.95
2023-04-30T04:00:13.918Z,33.80
2023-04-30T04:01:34.515Z,29.92
2023-04-30T04:02:57.505Z,41.35
2023-04-30T04:04:18.121Z,32.97
2023-04-30T04:05:38.784Z,32.65
2023-04-30T04:06:59.235Z,36.45
2023-04-30T04:08:21.053Z,33.67
2023-04-30T04:09:41.826Z,34.03
2023-04-30T04:11:02.456Z,38.63
2023-04-30T04:12:28.904Z,32.03
2023-04-30T04:13:49.835Z,33.15
2023-04-30T04:15:11.055Z,34.50
2023-04-30T04:16:31.681Z,28.88
2023-04-30T04:18:01.513Z,34.53
2023-04-30T04:19:22.003Z,31.15
2023-04-30T04:20:42.507Z,30.23
2023-04-30T04:22:02.926Z,28.05
2023-04-30T04:23:24.758Z,26.27
2023-04-30T04:24:45.154Z,24.95
2023-04-30T04:26:05.591Z,28.13
2023-04-30T04:27:31.864Z,26.85
2023-04-30T04:28:52.431Z,30.15
2023-04-30T04:30:13.032Z,28.85
2023-04-30T04:31:33.701Z,29.50
2023-04-30T04:32:54.456Z,35.97
2023-04-30T04:34:15.004Z,27.95
2023-04-30T04:35:37.477Z,29.80
2023-04-30T04:36:58.233Z,26.13
2023-04-30T04:38:18.912Z,27.45
2023-04-30T04:39:40.989Z,28.38
2023-04-30T04:41:01.757Z,25.75
2023-04-30T04:42:22.555Z,27.83
2023-04-30T04:43:43.288Z,28.45
2023-04-30T04:45:07.743Z,24.23
2023-04-30T04:46:28.247Z,31.33
2023-04-30T04:47:49.031Z,29.60
2023-04-30T04:49:09.533Z,24.40
2023-04-30T04:50:30.702Z,24.33
2023-04-30T04:51:51.680Z,26.85
2023-04-30T04:53:12.295Z,29.15
2023-04-30T04:54:32.908Z,28.50
2023-04-30T04:55:55.145Z,32.33
2023-04-30T04:57:15.627Z,27.40
2023-04-30T04:58:36.503Z,25.85
2023-04-30T04:59:56.903Z,28.33
2023-04-30T05:01:17.713Z,29.02
2023-04-30T05:02:39.022Z,31.13
2023-04-30T05:03:59.716Z,28.95
2023-04-30T05:05:20.406Z,25.70
2023-04-30T05:06:41.123Z,30.85
2023-04-30T05:08:01.519Z,24.27
2023-04-30T05:09:22.111Z,33.13
2023-04-30T05:10:42.882Z,27.73
2023-04-30T05:12:05.103Z,27.75
2023-04-30T05:13:26.138Z,27.25
2023-04-30T05:14:46.662Z,31.25
2023-04-30T05:16:07.587Z,31.17
2023-04-30T05:17:28.402Z,28.75
2023-04-30T05:18:48.528Z,27.48
2023-04-30T05:20:10.131Z,29.73
2023-04-30T05:21:30.743Z,29.27
2023-04-30T05:22:51.560Z,25.77
2023-04-30T05:24:12.105Z,25.50
2023-04-30T05:25:33.611Z,24.85
2023-04-30T05:26:54.427Z,27.08
2023-04-30T05:28:16.555Z,30.88
2023-04-30T05:29:37.421Z,25.33
2023-04-30T05:30:58.336Z,23.88
2023-04-30T05:32:19.147Z,24.08
2023-04-30T05:33:39.849Z,19.75
2023-04-30T05:35:00.443Z,22.65
2023-04-30T05:36:21.166Z,26.52
2023-04-30T05:37:41.855Z,27.00
2023-04-30T05:39:02.628Z,21.55
2023-04-30T05:40:23.287Z,23.80
2023-04-30T05:41:43.961Z,19.20
2023-04-30T05:43:04.444Z,21.73
2023-04-30T05:44:26.528Z,28.60
2023-04-30T05:45:47.492Z,25.15
2023-04-30T05:47:08.157Z,20.45
2023-04-30T05:48:28.862Z,26.58
2023-04-30T05:49:49.483Z,23.60
2023-04-30T05:51:10.005Z,23.38
2023-04-30T05:52:30.635Z,19.83
2023-04-30T05:53:51.441Z,22.52
2023-04-30T05:55:12.183Z,25.17
2023-04-30T05:56:33.385Z,23.58
2023-04-30T05:57:53.904Z,23.10
2023-04-30T05:59:14.415Z,20.58
2023-04-30T06:00:36.519Z,24.45
2023-04-30T06:01:57.320Z,22.58
2023-04-30T06:03:18.239Z,22.75
2023-04-30T06:04:38.590Z,25.92
2023-04-30T06:05:59.174Z,19.35
2023-04-30T06:07:19.770Z,21.87
2023-04-30T06:08:40.353Z,24.00
2023-04-30T06:10:01.227Z,21.30
2023-04-30T06:11:21.967Z,20.30
2023-04-30T06:12:42.719Z,20.85
2023-04-30T06:14:04.310Z,21.17
2023-04-30T06:15:25.099Z,22.48
2023-04-30T06:16:47.060Z,23.53
2023-04-30T06:18:07.631Z,22.45
2023-04-30T06:19:28.055Z,23.20
2023-04-30T06:20:48.609Z,20.13
2023-04-30T06:22:08.897Z,17.48
2023-04-30T06:23:29.638Z,18.00
2023-04-30T06:24:50.148Z,22.27
2023-04-30T06:26:10.801Z,18.13
2023-04-30T06:27:31.494Z,22.17
2023-04-30T06:28:52.028Z,18.83
2023-04-30T06:30:12.961Z,18.63
2023-04-30T06:31:33.747Z,20.13
2023-04-30T06:32:57.353Z,22.38
2023-04-30T06:34:19.771Z,23.45
2023-04-30T06:35:42.866Z,18.50
2023-04-30T06:37:03.409Z,17.60
2023-04-30T06:38:24.095Z,15.20
2023-04-30T06:39:44.559Z,21.67
2023-04-30T06:41:05.508Z,15.75
2023-04-30T06:42:26.001Z,16.20
2023-04-30T06:43:46.511Z,17.45
2023-04-30T06:45:08.433Z,20.08
2023-04-30T06:46:29.225Z,20.65
2023-04-30T06:47:50.152Z,17.98
2023-04-30T06:49:12.094Z,20.90
2023-04-30T06:50:32.777Z,17.40
2023-04-30T06:51:53.539Z,19.13
2023-04-30T06:53:14.653Z,16.50
2023-04-30T06:54:35.094Z,17.05
2023-04-30T06:55:56.061Z,20.45
2023-04-30T06:57:16.531Z,19.10
2023-04-30T06:58:37.279Z,16.05
2023-04-30T06:59:58.218Z,18.73
2023-04-30T07:01:18.979Z,15.85
2023-04-30T07:02:39.807Z,17.23
2023-04-30T07:04:00.926Z,18.33
2023-04-30T07:05:23.222Z,21.33
2023-04-30T07:06:43.790Z,19.60
2023-04-30T07:08:05.597Z,20.02
2023-04-30T07:09:26.121Z,16.52
2023-04-30T07:10:46.759Z,15.93
2023-04-30T07:12:07.620Z,19.65
2023-04-30T07:13:30.808Z,16.30
2023-04-30T07:14:51.442Z,18.48
2023-04-30T07:16:21.661Z,22.88
2023-04-30T07:17:42.533Z,21.08
2023-04-30T07:19:03.329Z,23.00
2023-04-30T07:20:26.065Z,18.40
2023-04-30T07:21:46.482Z,22.80
2023-04-30T07:23:06.794Z,19.55
2023-04-30T07:24:27.407Z,17.05
2023-04-30T07:25:47.888Z,19.35
2023-04-30T07:27:08.439Z,20.17
2023-04-30T07:28:29.223Z,19.88
2023-04-30T07:29:49.795Z,19.77
2023-04-30T07:31:10.538Z,15.88
2023-04-30T07:32:31.151Z,16.20
2023-04-30T07:33:51.683Z,16.35
2023-04-30T07:35:12.368Z,16.77
2023-04-30T07:36:35.576Z,22.58
2023-04-30T07:37:56.613Z,16.38
2023-04-30T07:39:17.014Z,18.20
2023-04-30T07:40:37.949Z,20.77
2023-04-30T07:41:58.522Z,17.92
2023-04-30T07:43:18.985Z,18.25
2023-04-30T07:44:39.563Z,18.30
2023-04-30T07:46:00.356Z,19.45
2023-04-30T07:47:20.946Z,18.60
2023-04-30T07:48:41.629Z,17.80
2023-04-30T07:50:02.464Z,17.67
2023-04-30T07:51:23.419Z,16.25
2023-04-30T07:52:45.344Z,15.98
2023-04-30T07:54:06.033Z,18.95
2023-04-30T07:55:27.019Z,14.40
2023-04-30T07:56:47.659Z,17.20
2023-04-30T07:58:08.141Z,18.63
2023-04-30T07:59:29.021Z,17.08
2023-04-30T08:00:49.793Z,20.25
2023-04-30T08:02:10.449Z,19.90
2023-04-30T08:03:31.103Z,20.65
2023-04-30T08:04:51.949Z,18.77
2023-04-30T08:06:12.478Z,18.48
2023-04-30T08:07:33.144Z,16.73
2023-04-30T08:08:55.441Z,14.57
2023-04-30T08:10:15.718Z,19.67
2023-04-30T08:11:36.395Z,20.80
2023-04-30T08:12:56.682Z,16.23
2023-04-30T08:14:16.914Z,17.20
2023-04-30T08:15:37.550Z,17.73
2023-04-30T08:16:58.023Z,16.58
2023-04-30T08:18:18.618Z,15.68
2023-04-30T08:19:39.236Z,16.00
2023-04-30T08:21:00.205Z,16.73
2023-04-30T08:22:20.891Z,14.30
2023-04-30T08:23:41.484Z,16.02
2023-04-30T08:25:03.598Z,14.73
2023-04-30T08:26:25.594Z,17.60
2023-04-30T08:27:46.112Z,18.27
2023-04-30T08:29:06.528Z,15.48
2023-04-30T08:30:27.186Z,18.90
2023-04-30T08:31:47.748Z,15.40
2023-04-30T08:33:08.545Z,13.88
2023-04-30T08:34:29.075Z,14.80
2023-04-30T08:35:49.700Z,16.33
2023-04-30T08:37:10.336Z,15.35
2023-04-30T08:38:30.986Z,14.53
2023-04-30T08:39:51.597Z,14.93
2023-04-30T08:41:14.335Z,16.10
2023-04-30T08:42:37.495Z,14.30
2023-04-30T08:44:01.364Z,14.60
2023-04-30T08:45:22.546Z,14.45
2023-04-30T08:46:43.617Z,15.48
2023-04-30T08:48:04.977Z,16.08
2023-04-30T08:49:26.116Z,19.27
2023-04-30T08:50:47.112Z,12.27
2023-04-30T08:52:07.710Z,12.35
2023-04-30T08:53:27.912Z,12.75
2023-04-30T08:54:48.668Z,18.50
2023-04-30T08:56:10.838Z,12.95
2023-04-30T08:58:52.721Z,14.98
2023-04-30T09:00:14.189Z,16.57
2023-04-30T09:01:53.619Z,12.63
2023-04-30T09:03:14.589Z,12.63
2023-04-30T09:04:35.158Z,15.07
2023-04-30T09:05:57.802Z,16.92
2023-04-30T09:07:18.796Z,13.13
2023-04-30T09:08:43.477Z,14.32
2023-04-30T09:10:04.101Z,14.75
2023-04-30T09:11:28.244Z,14.15
2023-04-30T09:13:00.734Z,11.75
2023-04-30T09:14:24.828Z,13.75
2023-04-30T09:15:45.149Z,13.98
2023-04-30T09:17:05.627Z,13.35
2023-04-30T09:18:27.434Z,13.30
2023-04-30T09:19:48.237Z,11.55
2023-04-30T09:21:08.940Z,12.48
2023-04-30T09:22:29.792Z,14.57
2023-04-30T09:23:57.000Z,13.93
2023-04-30T09:25:17.594Z,13.85
2023-04-30T09:26:38.811Z,15.90
2023-04-30T09:28:09.252Z,17.65
2023-04-30T09:29:37.205Z,11.32
2023-04-30T09:30:58.041Z,12.90
2023-04-30T09:32:18.685Z,10.73
2023-04-30T09:33:45.963Z,18.73
2023-04-30T09:35:06.954Z,13.27
2023-04-30T09:36:27.716Z,12.93
2023-04-30T09:37:48.537Z,10.98
2023-04-30T09:39:12.005Z,13.82
2023-04-30T09:40:35.948Z,13.43
2023-04-30T09:42:07.864Z,10.70
2023-04-30T09:44:50.303Z,12.60
2023-04-30T09:46:10.554Z,13.95
2023-04-30T09:47:33.725Z,16.00
2023-04-30T09:48:57.805Z,13.30
2023-04-30T09:50:18.773Z,12.32
2023-04-30T09:51:53.951Z,14.68
2023-04-30T09:53:15.551Z,12.60
2023-04-30T09:54:36.699Z,9.80
2023-04-30T09:55:58.524Z,11.13
2023-04-30T09:57:21.709Z,8.88
2023-04-30T09:58:44.752Z,11.65
2023-04-30T10:00:06.902Z,10.07
2023-04-30T10:01:28.272Z,9.18
2023-04-30T10:02:49.048Z,10.00
2023-04-30T10:04:09.570Z,9.23
2023-04-30T10:05:31.236Z,9.75
2023-04-30T10:06:52.773Z,12.10
2023-04-30T10:08:15.371Z,9.65
2023-04-30T10:09:39.802Z,12.25
2023-04-30T10:11:03.600Z,16.08
2023-04-30T10:12:27.452Z,9.30
2023-04-30T10:13:54.418Z,10.63
2023-04-30T10:15:17.016Z,11.15
2023-04-30T10:16:42.632Z,14.13
2023-04-30T10:18:05.826Z,11.18
2023-04-30T10:19:28.567Z,9.32
2023-04-30T10:20:49.272Z,11.55
2023-04-30T10:22:09.777Z,9.38
2023-04-30T10:23:30.543Z,8.50
2023-04-30T10:24:51.216Z,7.75
2023-04-30T10:26:11.614Z,7.35
2023-04-30T10:27:32.352Z,6.65
2023-04-30T10:28:54.616Z,9.95
2023-04-30T10:30:15.580Z,8.25
2023-04-30T10:31:36.772Z,9.65
2023-04-30T10:33:06.870Z,9.48
2023-04-30T10:34:35.910Z,8.93
2023-04-30T10:35:59.075Z,7.05
2023-04-30T10:37:30.247Z,6.07
2023-04-30T10:38:50.942Z,6.55
2023-04-30T10:40:12.423Z,5.55
2023-04-30T10:41:33.271Z,7.55
2023-04-30T10:42:59.809Z,10.02
2023-04-30T10:44:33.675Z,5.80
2023-04-30T10:46:00.806Z,6.15
2023-04-30T10:47:28.602Z,3.72
2023-04-30T10:48:49.304Z,3.17
2023-04-30T10:50:10.947Z,4.55
2023-04-30T10:51:48.117Z,5.32
2023-04-30T10:53:12.943Z,7.03
2023-04-30T10:54:35.440Z,7.95
2023-04-30T10:55:58.643Z,8.68
2023-04-30T10:57:21.457Z,6.78
2023-04-30T10:58:42.085Z,8.05
2023-04-30T11:00:26.035Z,9.90
2023-04-30T11:02:04.642Z,8.20
2023-04-30T11:03:25.063Z,7.28
2023-04-30T11:05:11.208Z,7.35
2023-04-30T11:06:49.630Z,7.60
2023-04-30T11:08:11.952Z,9.70
2023-04-30T11:09:41.173Z,7.30
2023-04-30T11:11:01.881Z,6.82
2023-04-30T11:12:22.546Z,12.13
2023-04-30T11:13:45.412Z,8.00
2023-04-30T11:15:07.683Z,8.80
2023-04-30T11:16:31.036Z,5.03
2023-04-30T11:17:52.055Z,7.82
2023-04-30T11:19:14.397Z,5.13
2023-04-30T11:20:39.951Z,5.35
2023-04-30T11:22:16.927Z,6.32
2023-04-30T11:23:41.809Z,8.10
2023-04-30T11:25:07.242Z,6.93
2023-04-30T11:26:28.069Z,6.38
2023-04-30T11:27:48.761Z,8.07
2023-04-30T11:29:09.314Z,6.15
2023-04-30T11:30:30.269Z,6.13
2023-04-30T11:31:53.246Z,2.30
2023-04-30T11:33:14.622Z,4.75
2023-04-30T11:34:35.980Z,3.15
2023-04-30T11:35:57.634Z,4.63
2023-04-30T11:37:20.464Z,5.00
2023-04-30T11:38:41.519Z,4.97
2023-04-30T11:40:03.494Z,6.70
2023-04-30T11:41:24.088Z,4.75
2023-04-30T11:42:46.291Z,6.28
2023-04-30T11:44:22.393Z,6.57
2023-04-30T11:45:42.899Z,5.50
2023-04-30T11:47:05.088Z,5.18
2023-04-30T11:48:25.580Z,6.75
2023-04-30T11:49:46.508Z,7.05
2023-04-30T11:51:15.439Z,7.15
2023-04-30T11:52:36.145Z,7.22
2023-04-30T11:53:56.466Z,6.05
2023-04-30T11:55:18.537Z,4.53
2023-04-30T11:56:40.893Z,5.10
2023-04-30T11:58:02.310Z,6.32
2023-04-30T11:59:23.093Z,6.57
2023-04-30T12:00:43.627Z,4.82
2023-04-30T12:02:06.012Z,6.73
2023-04-30T12:03:26.824Z,4.53
2023-04-30T12:04:47.517Z,4.75
2023-04-30T12:06:10.525Z,3.70
2023-04-30T12:07:31.029Z,3.22
2023-04-30T12:08:52.729Z,2.80
2023-04-30T12:10:13.637Z,4.78
2023-04-30T12:11:35.270Z,4.53
2023-04-30T12:12:55.766Z,4.97
2023-04-30T12:14:16.206Z,6.38
2023-04-30T12:15:36.948Z,4.97
2023-04-30T12:16:57.822Z,4.97
2023-04-30T12:18:20.272Z,4.95
2023-04-30T12:19:40.933Z,6.43
2023-04-30T12:21:01.431Z,6.75
2023-04-30T12:22:22.009Z,4.80
2023-04-30T12:23:42.655Z,3.55
2023-04-30T12:25:07.339Z,4.07
2023-04-30T12:26:34.891Z,4.05
2023-04-30T12:27:55.415Z,5.65
2023-04-30T12:29:17.596Z,5.85
2023-04-30T12:31:59.512Z,6.43
2023-04-30T12:33:21.411Z,4.72
2023-04-30T12:34:42.318Z,7.65
2023-04-30T12:36:02.801Z,4.38
2023-04-30T12:37:23.357Z,3.92
2023-04-30T12:38:43.822Z,5.18
2023-04-30T12:40:06.017Z,4.53
2023-04-30T12:41:29.703Z,4.18
2023-04-30T12:42:50.144Z,7.10
2023-04-30T12:44:18.299Z,4.78
2023-04-30T12:45:46.605Z,5.75
2023-04-30T12:47:08.522Z,5.60
2023-04-30T12:48:30.634Z,3.70
2023-04-30T12:49:51.014Z,4.22
2023-04-30T12:51:11.598Z,6.82
2023-04-30T12:52:32.860Z,3.35
2023-04-30T12:53:53.315Z,4.70
2023-04-30T12:55:21.027Z,4.65
2023-04-30T12:56:57.618Z,6.07
2023-04-30T12:58:18.621Z,4.72
2023-04-30T12:59:40.998Z,4.30
2023-04-30T13:01:01.746Z,4.50
2023-04-30T13:02:24.193Z,5.35
2023-04-30T13:03:46.193Z,4.88
2023-04-30T13:05:09.288Z,4.45
2023-04-30T13:06:31.437Z,5.53
2023-04-30T13:07:53.158Z,3.60
2023-04-30T13:10:34.449Z,3.95
2023-04-30T13:11:55.108Z,4.03
2023-04-30T13:13:16.588Z,5.05
2023-04-30T13:14:37.298Z,4.22
2023-04-30T13:15:57.818Z,3.03
2023-04-30T13:17:18.909Z,5.43
2023-04-30T13:18:39.965Z,3.35
2023-04-30T13:20:01.762Z,3.03
2023-04-30T13:21:22.401Z,2.83
2023-04-30T13:22:43.151Z,3.80
2023-04-30T13:24:04.092Z,3.35
2023-04-30T13:25:24.570Z,3.67
2023-04-30T13:26:45.237Z,2.88
2023-04-30T13:28:05.784Z,2.17
2023-04-30T13:29:26.498Z,4.38
2023-04-30T13:30:46.986Z,3.47
2023-04-30T13:32:07.760Z,4.68
2023-04-30T13:33:28.528Z,3.40
2023-04-30T13:34:49.079Z,4.97
2023-04-30T13:36:10.722Z,3.33
2023-04-30T13:37:31.387Z,4.47
2023-04-30T13:38:52.083Z,3.80
2023-04-30T13:40:13.326Z,2.50
2023-04-30T13:41:33.976Z,3.60
2023-04-30T13:42:54.777Z,3.95
2023-04-30T13:44:15.746Z,4.15
2023-04-30T13:45:36.346Z,4.95
2023-04-30T13:46:56.938Z,8.35
2023-04-30T13:48:18.013Z,5.07
2023-04-30T13:49:38.953Z,5.32
2023-04-30T13:51:00.975Z,4.00
2023-04-30T13:52:22.812Z,3.80
2023-04-30T13:53:43.166Z,4.05
2023-04-30T13:55:04.487Z,2.97
2023-04-30T13:56:25.515Z,4.47
2023-04-30T13:57:46.207Z,3.60
2023-04-30T13:59:06.690Z,4.15
2023-04-30T14:00:27.445Z,4.63
2023-04-30T14:01:47.970Z,7.15
2023-04-30T14:03:09.491Z,3.70
2023-04-30T14:04:32.940Z,4.25
2023-04-30T14:05:56.181Z,5.00
2023-04-30T14:07:19.136Z,2.85
2023-04-30T14:08:43.557Z,3.60
2023-04-30T14:10:08.305Z,2.38
2023-04-30T14:11:28.862Z,3.80
2023-04-30T14:12:49.627Z,1.75
2023-04-30T14:14:10.401Z,2.90
2023-04-30T14:15:31.153Z,6.10
2023-04-30T14:16:52.051Z,1.80
2023-04-30T14:18:12.952Z,2.47
2023-04-30T14:19:34.139Z,2.20
2023-04-30T14:20:54.782Z,2.28
2023-04-30T14:22:15.450Z,2.05
2023-04-30T14:23:35.874Z,1.67
2023-04-30T14:24:57.870Z,5.03
2023-04-30T14:26:18.480Z,4.35
2023-04-30T14:27:40.290Z,2.08
2023-04-30T14:29:00.798Z,1.67
2023-04-30T14:30:21.619Z,7.20
2023-04-30T14:31:42.509Z,3.72
2023-04-30T14:33:03.378Z,3.55
2023-04-30T14:34:23.935Z,3.97
2023-04-30T14:35:44.559Z,6.22
2023-04-30T14:37:05.299Z,3.00
2023-04-30T14:38:26.129Z,1.90
2023-04-30T14:39:46.750Z,1.33
2023-04-30T14:41:08.661Z,1.88
2023-04-30T14:42:29.466Z,1.65
2023-04-30T14:43:49.845Z,1.30
2023-04-30T14:45:11.274Z,2.00
2023-04-30T14:46:32.908Z,1.85
2023-04-30T14:47:53.183Z,1.33
2023-04-30T14:49:14.020Z,1.95
2023-04-30T14:50:34.755Z,2.83
2023-04-30T14:51:55.934Z,1.70
2023-04-30T14:53:16.321Z,1.88
2023-04-30T14:54:36.913Z,1.47
2023-04-30T14:55:57.721Z,2.60
2023-04-30T14:57:19.827Z,3.10
2023-04-30T14:58:40.184Z,2.42
2023-04-30T15:00:00.981Z,1.43
2023-04-30T15:01:21.470Z,3.03
2023-04-30T15:02:42.269Z,3.65
2023-04-30T15:04:02.970Z,2.22
2023-04-30T15:05:23.974Z,2.75
2023-04-30T15:06:44.662Z,3.08
2023-04-30T15:08:05.817Z,5.95
2023-04-30T15:09:26.453Z,1.67
2023-04-30T15:10:47.121Z,2.60
2023-04-30T15:12:07.836Z,2.42
2023-04-30T15:13:29.919Z,2.28
2023-04-30T15:14:50.744Z,3.03
2023-04-30T15:16:11.754Z,3.35
2023-04-30T15:17:32.357Z,2.77
2023-04-30T15:18:52.825Z,6.63
2023-04-30T15:20:13.877Z,2.60
2023-04-30T15:21:34.142Z,7.60
2023-04-30T15:22:54.769Z,4.85
2023-04-30T15:24:15.484Z,2.30
2023-04-30T15:25:36.155Z,2.23
2023-04-30T15:26:56.922Z,2.55
2023-04-30T15:28:17.654Z,2.35
2023-04-30T15:29:40.404Z,5.47
2023-04-30T15:31:01.175Z,2.78
2023-04-30T15:32:22.882Z,2.85
2023-04-30T15:33:43.391Z,3.13
2023-04-30T15:35:04.881Z,5.63
2023-04-30T15:36:25.588Z,4.20
2023-04-30T15:37:46.492Z,3.53
2023-04-30T15:39:07.122Z,5.07
2023-04-30T15:40:27.853Z,3.78
2023-04-30T15:41:48.455Z,4.05
2023-04-30T15:43:09.525Z,2.90
2023-04-30T15:44:30.332Z,2.58
2023-04-30T15:45:52.721Z,4.85
2023-04-30T15:47:13.604Z,4.50
2023-04-30T15:48:34.486Z,2.50
2023-04-30T15:49:55.546Z,5.10
2023-04-30T15:51:16.589Z,3.00
2023-04-30T15:52:39.937Z,3.42
2023-04-30T15:54:00.534Z,6.55
2023-04-30T15:55:21.394Z,4.03
2023-04-30T15:56:42.064Z,3.72
2023-04-30T15:58:02.724Z,7.00
2023-04-30T15:59:23.320Z,7.10
2023-04-30T16:00:44.289Z,8.40
2023-04-30T16:02:06.706Z,4.47
2023-04-30T16:03:27.438Z,5.22
2023-04-30T16:04:48.211Z,7.90
2023-04-30T16:06:08.900Z,7.15
2023-04-30T16:07:31.224Z,6.28
2023-04-30T16:08:51.984Z,2.53
2023-04-30T16:10:12.806Z,3.55
2023-04-30T16:11:33.672Z,6.82
2023-04-30T16:12:54.167Z,2.53
2023-04-30T16:14:14.655Z,4.40
2023-04-30T16:15:35.567Z,2.90
2023-04-30T16:16:56.189Z,3.38
2023-04-30T16:18:18.092Z,4.38
2023-04-30T16:19:38.763Z,2.28
2023-04-30T16:20:59.425Z,2.37
2023-04-30T16:22:20.194Z,2.65
2023-04-30T16:23:40.679Z,3.35
2023-04-30T16:25:01.400Z,4.17
2023-04-30T16:26:21.999Z,2.22
2023-04-30T16:27:42.759Z,2.75
2023-04-30T16:29:03.831Z,2.15
2023-04-30T16:30:24.354Z,13.85
2023-04-30T16:31:45.244Z,6.03
2023-04-30T16:33:05.944Z,2.65
2023-04-30T16:34:27.919Z,2.78
2023-04-30T16:35:48.564Z,2.42
2023-04-30T16:37:09.811Z,6.33
2023-04-30T16:38:30.169Z,2.88
2023-04-30T16:39:50.805Z,2.33
2023-04-30T16:41:11.496Z,2.70
2023-04-30T16:42:32.171Z,3.35
2023-04-30T16:43:52.758Z,4.03
2023-04-30T16:45:13.500Z,3.77
2023-04-30T16:46:34.280Z,4.18
2023-04-30T16:47:54.870Z,5.18
2023-04-30T16:49:15.584Z,6.90
2023-04-30T16:50:37.770Z,2.00
2023-04-30T16:51:58.530Z,3.63
2023-04-30T16:53:19.233Z,2.65
2023-04-30T16:54:39.932Z,2.72
2023-04-30T16:56:00.672Z,16.85
2023-04-30T16:57:21.140Z,3.78
2023-04-30T16:58:41.838Z,2.55
2023-04-30T17:00:02.545Z,2.75
2023-04-30T17:01:23.363Z,3.05
2023-04-30T17:02:44.163Z,3.15
2023-04-30T17:04:04.721Z,2.43
2023-04-30T17:05:25.556Z,3.85
2023-04-30T17:06:48.118Z,4.82
2023-04-30T17:08:08.640Z,4.95
2023-04-30T17:09:28.996Z,5.70
2023-04-30T17:10:49.616Z,2.97
2023-04-30T17:12:10.511Z,7.38
2023-04-30T17:13:31.422Z,3.20
2023-04-30T17:14:52.216Z,3.33
2023-04-30T17:16:12.989Z,3.78
2023-04-30T17:17:33.908Z,3.42
2023-04-30T17:18:54.400Z,4.00
2023-04-30T17:20:15.167Z,2.55
2023-04-30T17:21:35.960Z,4.18
2023-04-30T17:22:57.991Z,5.67
2023-04-30T17:24:18.722Z,2.28
2023-04-30T17:25:39.359Z,4.00
2023-04-30T17:26:59.922Z,1.27
2023-04-30T17:28:20.739Z,4.20
2023-04-30T17:29:41.674Z,2.33
2023-04-30T17:31:02.158Z,3.47
2023-04-30T17:32:22.957Z,2.80
2023-04-30T17:33:44.742Z,2.45
2023-04-30T17:35:07.367Z,3.33
2023-04-30T17:36:28.209Z,3.30
2023-04-30T17:37:48.764Z,3.75
2023-04-30T17:39:11.124Z,4.93
2023-04-30T17:40:31.386Z,3.85
2023-04-30T17:41:52.291Z,2.92
2023-04-30T17:43:13.009Z,3.70
2023-04-30T17:44:33.522Z,2.15
2023-04-30T17:45:54.171Z,4.60
2023-04-30T17:47:16.308Z,3.60
2023-04-30T17:48:36.717Z,3.05
2023-04-30T17:49:58.140Z,4.93
2023-04-30T17:51:18.706Z,5.25
2023-04-30T17:52:39.230Z,5.68
2023-04-30T17:53:59.948Z,2.30
2023-04-30T17:55:22.111Z,8.90
2023-04-30T17:56:42.844Z,5.07